Évreux, France

02:53 CEST le 16 septembre 2014 (GMT +0200)
Fauville Air Base | Change Station
CLOSE
Current Station
Aéroport
Location: Evreux,
Altitude: 453 ft
Stations météo à proximité

Alt. 453 ft 49.03 °N, 1.22 °E | Updated 23 minutes ago

Clear
Ciel dégagé
59 ° F
Paraît 59 ° F
N
4
Vent Variable Vent de Est

Aujourd'hui
Haut(e) -- | Bas -- ° F
--% Risque de précip.
Hier
Haut(e) -- | Bas -- ° F
Precip. -- pouce
7:32 AM 8:06 PM
Lune gibbeuse décroissante, 51% visible
Pression 29.95 pouce
Visibilité 6.2 Miles terrestres
Nuages
Point de rosée 55 ° F
Humidité 88%
Précipitations 0.00 pouce
Profondeur de la couche neigeuse Non disponible.
UV Non disponible.
Pollen Non disponible.
Qualité de l'air Non disponible.
Flu Activity Non disponible.
METAR LFOE 160030Z AUTO 09003KT 9999 NSC 15/13 Q1014

More Conditions Fewer Conditions

Pression 29.95 pouce
Visibilité 6.2 Miles terrestres
Nuages
Point de rosée 55 ° F
Humidité 88%
Précipitations 0.00 pouce
Profondeur de la couche neigeuse Non disponible.
UV Non disponible.
Pollen Non disponible.
Qualité de l'air Non disponible.
Flu Activity Non disponible.
METAR LFOE 160030Z AUTO 09003KT 9999 NSC 15/13 Q1014

More Conditions Fewer Conditions

10-Day Weather Forecast

Almanac

Astronomie

Sep. 16, 2014 Lever Coucher
Temps réel 07:32 CEST 20:06 CEST
Crépuscule civil 07:00 CEST 20:38 CEST
Crépuscule nautique 06:22 CEST 21:15 CEST
Crépuscule astronomique 05:43 CEST 21:55 CEST
Lune 00:08 CEST 15:39 CEST
Durée de lumière visible 13h 37m
Longueur du jour
12h 33m
Tomorrow will be 3m 34s shorter.
Lune gibbeuse décroissante, 51% of the Moon is Illuminated
Sep 15
Lune gibbeuse décroissante
Sep 15
Dernier quartier
Sep 24
Nouveau
Oct 1
Premier quartier
Oct 8
Pleine lune

Les extrêmes de température d’hier

Country Highs Country Lows

Community

WunderPhotos

Upload Photos

1,753,630 Photos téléchargées !

Nearby

Qualité de l'air

Not available.

Épaisseur de neige

Not available.

Activité sismique

Ville Distance Mag. Time & Date
No recent earthquake activity has been reported nearby.
Minimum magnitude displayed is 2.5.

Températures des eaux côtières

Lieu Température
Aucun rapport de station

Stations météo à proximité